sensor_id;sensor_type;location;lat;lon;timestamp;pressure;altitude;pressure_sealevel;temperature;humidity
57442;BME280;43284;47.042;15.498;2023-03-21T00:01:33;97293.25;;;4.73;83.00
57442;BME280;43284;47.042;15.498;2023-03-21T00:03:58;97294.19;;;4.70;83.57
57442;BME280;43284;47.042;15.498;2023-03-21T00:06:24;97293.28;;;4.71;84.21
57442;BME280;43284;47.042;15.498;2023-03-21T00:08:50;97297.59;;;4.72;83.70
57442;BME280;43284;47.042;15.498;2023-03-21T00:11:16;97289.75;;;4.74;84.07
57442;BME280;43284;47.042;15.498;2023-03-21T00:13:42;97289.75;;;4.74;83.95
57442;BME280;43284;47.042;15.498;2023-03-21T00:16:12;97292.31;;;4.75;84.59
57442;BME280;43284;47.042;15.498;2023-03-21T00:18:42;97289.63;;;4.80;84.17
57442;BME280;43284;47.042;15.498;2023-03-21T00:21:15;97280.91;;;4.84;84.06
57442;BME280;43284;47.042;15.498;2023-03-21T00:23:42;97290.31;;;4.88;83.95
57442;BME280;43284;47.042;15.498;2023-03-21T00:26:09;97286.75;;;4.92;84.86
57442;BME280;43284;47.042;15.498;2023-03-21T00:28:36;97280.56;;;4.98;84.75
57442;BME280;43284;47.042;15.498;2023-03-21T00:31:02;97274.44;;;5.01;85.18
57442;BME280;43284;47.042;15.498;2023-03-21T00:33:28;97275.25;;;5.03;85.08
57442;BME280;43284;47.042;15.498;2023-03-21T00:35:54;97274.34;;;5.05;85.47
57442;BME280;43284;47.042;15.498;2023-03-21T00:38:22;97275.16;;;5.07;85.77
57442;BME280;43284;47.042;15.498;2023-03-21T00:40:48;97274.34;;;5.05;85.94
57442;BME280;43284;47.042;15.498;2023-03-21T00:43:15;97271.66;;;5.10;86.15
57442;BME280;43284;47.042;15.498;2023-03-21T00:45:49;97276.75;;;5.13;85.89
57442;BME280;43284;47.042;15.498;2023-03-21T00:48:16;97268.09;;;5.14;86.58
57442;BME280;43284;47.042;15.498;2023-03-21T00:50:44;97266.25;;;5.18;86.81
57442;BME280;43284;47.042;15.498;2023-03-21T00:53:11;97267.88;;;5.22;86.18
57442;BME280;43284;47.042;15.498;2023-03-21T00:55:37;97260.81;;;5.28;86.09
57442;BME280;43284;47.042;15.498;2023-03-21T00:58:04;97260.75;;;5.31;85.65
57442;BME280;43284;47.042;15.498;2023-03-21T01:00:30;97266.66;;;5.35;85.67
57442;BME280;43284;47.042;15.498;2023-03-21T01:02:58;97276.06;;;5.39;85.28
57442;BME280;43284;47.042;15.498;2023-03-21T01:05:36;97268.28;;;5.41;85.07
57442;BME280;43284;47.042;15.498;2023-03-21T01:08:22;97266.50;;;5.43;85.81
57442;BME280;43284;47.042;15.498;2023-03-21T01:10:48;97259.53;;;5.45;86.05
57442;BME280;43284;47.042;15.498;2023-03-21T01:13:16;97262.06;;;5.46;86.24
57442;BME280;43284;47.042;15.498;2023-03-21T01:15:48;97252.59;;;5.45;85.20
57442;BME280;43284;47.042;15.498;2023-03-21T01:18:15;97256.00;;;5.47;84.52
57442;BME280;43284;47.042;15.498;2023-03-21T01:20:43;97252.44;;;5.51;83.65
57442;BME280;43284;47.042;15.498;2023-03-21T01:23:11;97252.78;;;5.37;85.02
57442;BME280;43284;47.042;15.498;2023-03-21T01:25:37;97255.16;;;5.47;85.76
57442;BME280;43284;47.042;15.498;2023-03-21T01:28:03;97255.97;;;5.49;85.02
57442;BME280;43284;47.042;15.498;2023-03-21T01:30:29;97247.19;;;5.53;85.47
57442;BME280;43284;47.042;15.498;2023-03-21T01:32:55;97259.19;;;5.57;85.41
57442;BME280;43284;47.042;15.498;2023-03-21T01:35:20;97250.47;;;5.60;85.35
57442;BME280;43284;47.042;15.498;2023-03-21T01:37:47;97251.22;;;5.63;85.27
57442;BME280;43284;47.042;15.498;2023-03-21T01:40:22;97259.78;;;5.67;86.17
57442;BME280;43284;47.042;15.498;2023-03-21T01:42:48;97255.41;;;5.69;86.41
57442;BME280;43284;47.042;15.498;2023-03-21T01:48:18;97249.19;;;5.74;85.99
57442;BME280;43284;47.042;15.498;2023-03-21T01:50:45;97255.19;;;5.76;85.74
57442;BME280;43284;47.042;15.498;2023-03-21T01:53:12;97246.47;;;5.79;85.66
57442;BME280;43284;47.042;15.498;2023-03-21T01:55:38;97240.38;;;5.82;85.71
57442;BME280;43284;47.042;15.498;2023-03-21T01:58:07;97242.06;;;5.83;84.40
57442;BME280;43284;47.042;15.498;2023-03-21T02:00:35;97229.88;;;5.85;84.25
57442;BME280;43284;47.042;15.498;2023-03-21T02:03:04;97227.19;;;5.88;83.95
57442;BME280;43284;47.042;15.498;2023-03-21T02:08:04;97226.28;;;5.90;82.33
57442;BME280;43284;47.042;15.498;2023-03-21T02:10:31;97216.69;;;5.92;82.48
57442;BME280;43284;47.042;15.498;2023-03-21T02:13:00;97224.47;;;5.92;81.69
57442;BME280;43284;47.042;15.498;2023-03-21T02:15:38;97220.13;;;5.94;81.85
57442;BME280;43284;47.042;15.498;2023-03-21T02:18:18;97214.03;;;5.94;82.63
57442;BME280;43284;47.042;15.498;2023-03-21T02:27:02;97211.63;;;5.88;82.76
57442;BME280;43284;47.042;15.498;2023-03-21T02:30:21;97209.09;;;5.86;82.92
57442;BME280;43284;47.042;15.498;2023-03-21T02:36:00;97216.22;;;5.80;82.83
57442;BME280;43284;47.042;15.498;2023-03-21T02:43:50;97211.34;;;5.67;81.55
57442;BME280;43284;47.042;15.498;2023-03-21T02:46:27;97210.66;;;5.62;82.20
57442;BME280;43284;47.042;15.498;2023-03-21T02:49:02;97209.16;;;5.53;81.88
57442;BME280;43284;47.042;15.498;2023-03-21T02:51:31;97208.47;;;5.47;81.90
57442;BME280;43284;47.042;15.498;2023-03-21T02:54:05;97216.41;;;5.41;82.38
57442;BME280;43284;47.042;15.498;2023-03-21T02:56:31;97210.63;;;5.31;82.65
57442;BME280;43284;47.042;15.498;2023-03-21T02:58:59;97210.84;;;5.23;82.41
57442;BME280;43284;47.042;15.498;2023-03-21T03:01:25;97210.03;;;5.21;82.44
57442;BME280;43284;47.042;15.498;2023-03-21T03:03:51;97209.31;;;5.16;82.64
57442;BME280;43284;47.042;15.498;2023-03-21T03:06:18;97204.31;;;5.08;82.75
57442;BME280;43284;47.042;15.498;2023-03-21T03:09:12;97212.34;;;4.99;83.02
57442;BME280;43284;47.042;15.498;2023-03-21T03:11:43;97213.31;;;4.93;82.93
57442;BME280;43284;47.042;15.498;2023-03-21T03:20:05;97219.16;;;4.67;82.43
57442;BME280;43284;47.042;15.498;2023-03-21T03:22:45;97214.97;;;4.62;83.67
57442;BME280;43284;47.042;15.498;2023-03-21T03:25:19;97217.63;;;4.59;84.62
57442;BME280;43284;47.042;15.498;2023-03-21T03:27:49;97218.59;;;4.54;84.97
57442;BME280;43284;47.042;15.498;2023-03-21T03:30:17;97219.47;;;4.53;84.80
57442;BME280;43284;47.042;15.498;2023-03-21T03:32:50;97221.28;;;4.50;84.73
57442;BME280;43284;47.042;15.498;2023-03-21T03:35:19;97223.97;;;4.47;85.17
57442;BME280;43284;47.042;15.498;2023-03-21T03:37:49;97232.56;;;4.47;86.02
57442;BME280;43284;47.042;15.498;2023-03-21T03:40:28;97223.00;;;4.51;87.04
57442;BME280;43284;47.042;15.498;2023-03-21T03:42:59;97226.22;;;4.61;87.46
57442;BME280;43284;47.042;15.498;2023-03-21T03:45:33;97224.38;;;4.66;87.03
57442;BME280;43284;47.042;15.498;2023-03-21T03:48:17;97225.09;;;4.72;86.74
57442;BME280;43284;47.042;15.498;2023-03-21T03:50:53;97221.59;;;4.73;86.11
57442;BME280;43284;47.042;15.498;2023-03-21T03:53:31;97217.50;;;4.63;85.78
57442;BME280;43284;47.042;15.498;2023-03-21T03:55:59;97215.75;;;4.65;86.58
57442;BME280;43284;47.042;15.498;2023-03-21T03:58:26;97216.66;;;4.64;86.50
57442;BME280;43284;47.042;15.498;2023-03-21T04:00:53;97224.44;;;4.63;86.18
57442;BME280;43284;47.042;15.498;2023-03-21T04:03:20;97216.75;;;4.60;86.38
57442;BME280;43284;47.042;15.498;2023-03-21T04:05:46;97221.03;;;4.61;85.79
57442;BME280;43284;47.042;15.498;2023-03-21T04:08:13;97219.50;;;4.52;86.02
57442;BME280;43284;47.042;15.498;2023-03-21T04:10:40;97217.97;;;4.45;86.40
57442;BME280;43284;47.042;15.498;2023-03-21T04:13:06;97222.06;;;4.16;85.78
57442;BME280;43284;47.042;15.498;2023-03-21T04:15:32;97224.53;;;4.21;87.09
57442;BME280;43284;47.042;15.498;2023-03-21T04:17:58;97217.81;;;4.13;87.40
57442;BME280;43284;47.042;15.498;2023-03-21T04:20:24;97228.19;;;4.12;86.99
57442;BME280;43284;47.042;15.498;2023-03-21T04:22:50;97223.03;;;4.10;86.67
57442;BME280;43284;47.042;15.498;2023-03-21T04:25:16;97223.94;;;4.09;86.89
57442;BME280;43284;47.042;15.498;2023-03-21T04:27:42;97225.75;;;4.04;87.01
57442;BME280;43284;47.042;15.498;2023-03-21T04:30:11;97231.91;;;4.00;86.62
57442;BME280;43284;47.042;15.498;2023-03-21T04:32:37;97232.03;;;3.94;86.90
57442;BME280;43284;47.042;15.498;2023-03-21T04:35:08;97225.13;;;3.93;86.76
57442;BME280;43284;47.042;15.498;2023-03-21T04:37:34;97223.50;;;3.89;86.31
57442;BME280;43284;47.042;15.498;2023-03-21T04:40:01;97237.44;;;3.82;86.33
57442;BME280;43284;47.042;15.498;2023-03-21T04:42:31;97237.56;;;3.76;86.97
57442;BME280;43284;47.042;15.498;2023-03-21T04:44:57;97239.41;;;3.69;87.18
57442;BME280;43284;47.042;15.498;2023-03-21T04:47:22;97244.59;;;3.69;87.31
57442;BME280;43284;47.042;15.498;2023-03-21T04:49:48;97236.94;;;3.63;87.13
57442;BME280;43284;47.042;15.498;2023-03-21T04:52:14;97245.69;;;3.59;86.87
57442;BME280;43284;47.042;15.498;2023-03-21T04:54:40;97240.53;;;3.56;87.09
57442;BME280;43284;47.042;15.498;2023-03-21T04:57:06;97239.81;;;3.49;87.17
57442;BME280;43284;47.042;15.498;2023-03-21T04:59:33;97232.91;;;3.49;88.06
57442;BME280;43284;47.042;15.498;2023-03-21T05:01:59;97248.41;;;3.49;88.13
57442;BME280;43284;47.042;15.498;2023-03-21T05:04:26;97246.72;;;3.48;87.00
57442;BME280;43284;47.042;15.498;2023-03-21T05:06:52;97243.34;;;3.45;87.62
57442;BME280;43284;47.042;15.498;2023-03-21T05:09:19;97247.94;;;3.30;86.40
57442;BME280;43284;47.042;15.498;2023-03-21T05:11:46;97247.00;;;3.33;87.24
57442;BME280;43284;47.042;15.498;2023-03-21T05:14:23;97248.78;;;3.31;87.62
57442;BME280;43284;47.042;15.498;2023-03-21T05:16:50;97255.81;;;3.23;87.19
57442;BME280;43284;47.042;15.498;2023-03-21T05:19:23;97250.75;;;3.17;87.64
57442;BME280;43284;47.042;15.498;2023-03-21T05:21:49;97256.81;;;3.13;88.64
57442;BME280;43284;47.042;15.498;2023-03-21T05:24:18;97255.97;;;3.12;89.11
57442;BME280;43284;47.042;15.498;2023-03-21T05:26:44;97263.72;;;3.12;89.05
57442;BME280;43284;47.042;15.498;2023-03-21T05:29:18;97262.00;;;3.13;89.32
57442;BME280;43284;47.042;15.498;2023-03-21T05:31:44;97260.31;;;3.12;89.24
57442;BME280;43284;47.042;15.498;2023-03-21T05:34:11;97260.28;;;3.13;89.46
57442;BME280;43284;47.042;15.498;2023-03-21T05:36:37;97256.88;;;3.11;89.49
57442;BME280;43284;47.042;15.498;2023-03-21T05:39:04;97259.47;;;3.09;90.02
57442;BME280;43284;47.042;15.498;2023-03-21T05:41:30;97255.97;;;3.12;89.85
57442;BME280;43284;47.042;15.498;2023-03-21T05:43:56;97262.03;;;3.11;90.02
57442;BME280;43284;47.042;15.498;2023-03-21T05:46:22;97264.63;;;3.11;90.01
57442;BME280;43284;47.042;15.498;2023-03-21T05:48:47;97268.88;;;3.14;90.42
57442;BME280;43284;47.042;15.498;2023-03-21T05:51:13;97265.47;;;3.13;90.17
57442;BME280;43284;47.042;15.498;2023-03-21T05:53:39;97269.72;;;3.14;90.06
57442;BME280;43284;47.042;15.498;2023-03-21T05:56:05;97268.94;;;3.11;90.25
57442;BME280;43284;47.042;15.498;2023-03-21T05:58:31;97262.88;;;3.13;91.17
57442;BME280;43284;47.042;15.498;2023-03-21T06:00:57;97268.13;;;3.07;90.71
57442;BME280;43284;47.042;15.498;2023-03-21T06:03:22;97269.81;;;3.08;90.83
57442;BME280;43284;47.042;15.498;2023-03-21T06:05:48;97271.53;;;3.09;91.27
57442;BME280;43284;47.042;15.498;2023-03-21T06:08:14;97274.97;;;3.11;91.24
57442;BME280;43284;47.042;15.498;2023-03-21T06:10:39;97274.03;;;3.14;91.24
57442;BME280;43284;47.042;15.498;2023-03-21T06:13:05;97280.06;;;3.13;90.77
57442;BME280;43284;47.042;15.498;2023-03-21T06:15:31;97289.53;;;3.15;90.69
57442;BME280;43284;47.042;15.498;2023-03-21T06:17:57;97289.53;;;3.15;90.88
57442;BME280;43284;47.042;15.498;2023-03-21T06:20:22;97284.31;;;3.17;91.03
57442;BME280;43284;47.042;15.498;2023-03-21T06:22:48;97287.72;;;3.19;91.04
57442;BME280;43284;47.042;15.498;2023-03-21T06:25:14;97280.84;;;3.19;91.14
57442;BME280;43284;47.042;15.498;2023-03-21T06:27:39;97283.44;;;3.19;91.08
57442;BME280;43284;47.042;15.498;2023-03-21T06:30:06;97281.66;;;3.21;91.07
57442;BME280;43284;47.042;15.498;2023-03-21T06:32:32;97287.59;;;3.28;91.54
57442;BME280;43284;47.042;15.498;2023-03-21T06:34:58;97283.16;;;3.35;91.53
57442;BME280;43284;47.042;15.498;2023-03-21T06:37:24;97277.91;;;3.39;90.91
57442;BME280;43284;47.042;15.498;2023-03-21T06:39:51;97276.88;;;3.48;91.45
57442;BME280;43284;47.042;15.498;2023-03-21T06:42:17;97287.72;;;3.67;91.89
57442;BME280;43284;47.042;15.498;2023-03-21T06:44:42;97284.16;;;3.72;91.36
57442;BME280;43284;47.042;15.498;2023-03-21T06:47:08;97284.91;;;3.79;91.23
57442;BME280;43284;47.042;15.498;2023-03-21T06:49:34;97290.72;;;3.89;91.10
57442;BME280;43284;47.042;15.498;2023-03-21T06:51:59;97287.06;;;4.01;91.16
57442;BME280;43284;47.042;15.498;2023-03-21T06:54:25;97285.19;;;4.09;91.08
57442;BME280;43284;47.042;15.498;2023-03-21T06:56:51;97284.97;;;4.18;90.84
57442;BME280;43284;47.042;15.498;2023-03-21T06:59:16;97288.16;;;4.31;90.81
57442;BME280;43284;47.042;15.498;2023-03-21T07:01:42;97281.88;;;4.41;90.26
57442;BME280;43284;47.042;15.498;2023-03-21T07:04:08;97282.44;;;4.54;90.61
57442;BME280;43284;47.042;15.498;2023-03-21T07:06:35;97276.19;;;4.64;89.98
57442;BME280;43284;47.042;15.498;2023-03-21T07:09:02;97278.41;;;4.81;89.89
57442;BME280;43284;47.042;15.498;2023-03-21T07:11:29;97266.66;;;5.35;90.10
57442;BME280;43284;47.042;15.498;2023-03-21T07:13:56;97277.66;;;6.09;81.19
57442;BME280;43284;47.042;15.498;2023-03-21T07:16:22;97273.34;;;6.37;78.03
57442;BME280;43284;47.042;15.498;2023-03-21T07:18:49;97269.78;;;6.70;77.03
57442;BME280;43284;47.042;15.498;2023-03-21T07:21:15;97262.34;;;7.12;74.05
57442;BME280;43284;47.042;15.498;2023-03-21T07:23:41;97268.38;;;7.39;74.37
57442;BME280;43284;47.042;15.498;2023-03-21T07:26:07;97260.94;;;7.54;72.19
57442;BME280;43284;47.042;15.498;2023-03-21T07:28:33;97271.34;;;7.54;72.49
57442;BME280;43284;47.042;15.498;2023-03-21T07:31:02;97263.88;;;7.93;71.31
57442;BME280;43284;47.042;15.498;2023-03-21T07:33:29;97270.09;;;7.89;71.28
57442;BME280;43284;47.042;15.498;2023-03-21T07:35:55;97262.91;;;7.96;70.43
57442;BME280;43284;47.042;15.498;2023-03-21T07:38:22;97268.97;;;8.20;69.40
57442;BME280;43284;47.042;15.498;2023-03-21T07:40:48;97261.22;;;8.18;69.42
57442;BME280;43284;47.042;15.498;2023-03-21T07:43:15;97264.84;;;8.38;68.86
57442;BME280;43284;47.042;15.498;2023-03-21T07:45:43;97263.13;;;8.37;68.95
57442;BME280;43284;47.042;15.498;2023-03-21T07:48:09;97268.31;;;8.60;69.31
57442;BME280;43284;47.042;15.498;2023-03-21T07:50:37;97262.38;;;8.57;68.84
57442;BME280;43284;47.042;15.498;2023-03-21T07:53:03;97267.31;;;8.64;70.04
57442;BME280;43284;47.042;15.498;2023-03-21T07:55:29;97261.63;;;8.77;70.58
57442;BME280;43284;47.042;15.498;2023-03-21T07:57:54;97262.13;;;9.07;66.22
57442;BME280;43284;47.042;15.498;2023-03-21T08:00:21;97265.00;;;9.01;66.02
57442;BME280;43284;47.042;15.498;2023-03-21T08:02:51;97258.19;;;9.19;65.96
57442;BME280;43284;47.042;15.498;2023-03-21T08:05:21;97256.22;;;9.24;66.99
57442;BME280;43284;47.042;15.498;2023-03-21T08:07:48;97256.84;;;9.29;66.91
57442;BME280;43284;47.042;15.498;2023-03-21T08:10:14;97251.28;;;9.38;65.37
57442;BME280;43284;47.042;15.498;2023-03-21T08:12:40;97254.91;;;9.55;64.77
57442;BME280;43284;47.042;15.498;2023-03-21T08:15:07;97252.41;;;9.72;65.43
57442;BME280;43284;47.042;15.498;2023-03-21T08:17:33;97249.06;;;9.89;63.46
57442;BME280;43284;47.042;15.498;2023-03-21T08:20:04;97239.06;;;9.99;64.04
57442;BME280;43284;47.042;15.498;2023-03-21T08:22:35;97240.75;;;10.39;63.83
57442;BME280;43284;47.042;15.498;2023-03-21T08:25:03;97232.69;;;10.44;61.57
57442;BME280;43284;47.042;15.498;2023-03-21T08:27:31;97235.34;;;10.61;60.23
57442;BME280;43284;47.042;15.498;2023-03-21T08:29:58;97231.50;;;11.05;58.42
57442;BME280;43284;47.042;15.498;2023-03-21T08:32:24;97232.41;;;11.04;56.73
57442;BME280;43284;47.042;15.498;2023-03-21T08:35:03;97225.75;;;11.16;57.55
57442;BME280;43284;47.042;15.498;2023-03-21T08:37:29;97226.75;;;11.30;58.33
57442;BME280;43284;47.042;15.498;2023-03-21T08:39:55;97228.66;;;11.44;59.06
57442;BME280;43284;47.042;15.498;2023-03-21T08:42:21;97217.41;;;11.42;60.96
57442;BME280;43284;47.042;15.498;2023-03-21T08:44:48;97217.94;;;11.49;56.85
57442;BME280;43284;47.042;15.498;2023-03-21T08:47:13;97215.84;;;11.55;57.87
57442;BME280;43284;47.042;15.498;2023-03-21T08:49:40;97216.41;;;11.78;54.65
57442;BME280;43284;47.042;15.498;2023-03-21T08:52:06;97211.75;;;11.67;55.49
57442;BME280;43284;47.042;15.498;2023-03-21T08:54:32;97215.81;;;11.90;53.77
57442;BME280;43284;47.042;15.498;2023-03-21T08:56:58;97222.84;;;11.90;54.27
57442;BME280;43284;47.042;15.498;2023-03-21T08:59:23;97214.03;;;11.73;53.99
57442;BME280;43284;47.042;15.498;2023-03-21T09:01:49;97214.88;;;11.74;55.89
57442;BME280;43284;47.042;15.498;2023-03-21T09:04:15;97220.44;;;12.19;51.68
57442;BME280;43284;47.042;15.498;2023-03-21T09:06:43;97220.03;;;12.42;52.26
57442;BME280;43284;47.042;15.498;2023-03-21T09:09:14;97212.13;;;12.74;50.89
57442;BME280;43284;47.042;15.498;2023-03-21T09:11:40;97211.63;;;12.67;50.30
57442;BME280;43284;47.042;15.498;2023-03-21T09:14:06;97213.66;;;12.62;49.89
57442;BME280;43284;47.042;15.498;2023-03-21T09:16:32;97217.72;;;12.52;51.05
57442;BME280;43284;47.042;15.498;2023-03-21T09:18:58;97216.19;;;12.64;51.65
57442;BME280;43284;47.042;15.498;2023-03-21T09:21:25;97214.13;;;12.85;50.95
57442;BME280;43284;47.042;15.498;2023-03-21T09:23:53;97213.97;;;12.88;52.35
57442;BME280;43284;47.042;15.498;2023-03-21T09:26:24;97207.53;;;12.93;51.56
57442;BME280;43284;47.042;15.498;2023-03-21T09:28:50;97206.50;;;12.96;51.74
57442;BME280;43284;47.042;15.498;2023-03-21T09:31:17;97214.22;;;12.99;52.29
57442;BME280;43284;47.042;15.498;2023-03-21T09:33:51;97200.56;;;13.23;50.50
57442;BME280;43284;47.042;15.498;2023-03-21T09:36:18;97202.16;;;13.41;50.26
57442;BME280;43284;47.042;15.498;2023-03-21T09:38:47;97201.41;;;13.53;50.79
57442;BME280;43284;47.042;15.498;2023-03-21T09:49:34;97187.22;;;14.28;46.92
57442;BME280;43284;47.042;15.498;2023-03-21T09:52:10;97177.69;;;14.12;46.46
57442;BME280;43284;47.042;15.498;2023-03-21T09:54:41;97186.22;;;14.16;47.04
57442;BME280;43284;47.042;15.498;2023-03-21T09:57:33;97180.50;;;14.24;47.48
57442;BME280;43284;47.042;15.498;2023-03-21T10:00:05;97171.66;;;14.25;45.65
57442;BME280;43284;47.042;15.498;2023-03-21T10:02:42;97157.75;;;14.64;44.86
57442;BME280;43284;47.042;15.498;2023-03-21T10:05:25;97160.59;;;14.88;44.70
57442;BME280;43284;47.042;15.498;2023-03-21T10:10:28;97159.03;;;14.98;43.24
57442;BME280;43284;47.042;15.498;2023-03-21T10:12:56;97157.56;;;14.94;42.76
57442;BME280;43284;47.042;15.498;2023-03-21T10:15:25;97150.06;;;14.88;42.87
57442;BME280;43284;47.042;15.498;2023-03-21T10:18:00;97155.41;;;14.87;42.23
57442;BME280;43284;47.042;15.498;2023-03-21T10:20:35;97145.88;;;14.71;40.79
57442;BME280;43284;47.042;15.498;2023-03-21T10:23:03;97143.69;;;14.65;41.19
57442;BME280;43284;47.042;15.498;2023-03-21T10:25:35;97143.47;;;14.54;38.55
57442;BME280;43284;47.042;15.498;2023-03-21T10:28:05;97147.28;;;14.50;39.26
57442;BME280;43284;47.042;15.498;2023-03-21T10:30:44;97143.59;;;14.52;41.16
57442;BME280;43284;47.042;15.498;2023-03-21T10:33:17;97141.50;;;14.72;40.38
57442;BME280;43284;47.042;15.498;2023-03-21T10:35:49;97138.25;;;14.81;37.84
57442;BME280;43284;47.042;15.498;2023-03-21T10:38:18;97139.09;;;14.81;38.30
57442;BME280;43284;47.042;15.498;2023-03-21T10:40:45;97140.03;;;14.80;39.33
57442;BME280;43284;47.042;15.498;2023-03-21T10:43:17;97138.16;;;14.95;41.35
57442;BME280;43284;47.042;15.498;2023-03-21T10:45:45;97134.50;;;15.11;41.44
57442;BME280;43284;47.042;15.498;2023-03-21T10:48:11;97123.16;;;15.49;38.35
57442;BME280;43284;47.042;15.498;2023-03-21T10:50:37;97126.31;;;15.54;38.14
57442;BME280;43284;47.042;15.498;2023-03-21T10:53:17;97122.00;;;15.78;37.74
57442;BME280;43284;47.042;15.498;2023-03-21T10:55:46;97127.88;;;15.43;36.47
57442;BME280;43284;47.042;15.498;2023-03-21T10:58:21;97123.34;;;15.58;39.43
57442;BME280;43284;47.042;15.498;2023-03-21T11:01:00;97122.94;;;15.52;38.01
57442;BME280;43284;47.042;15.498;2023-03-21T11:03:30;97120.84;;;15.31;37.59
57442;BME280;43284;47.042;15.498;2023-03-21T11:06:27;97112.31;;;15.28;38.85
57442;BME280;43284;47.042;15.498;2023-03-21T11:09:16;97113.06;;;15.81;39.55
57442;BME280;43284;47.042;15.498;2023-03-21T11:12:09;97103.72;;;16.01;38.07
57442;BME280;43284;47.042;15.498;2023-03-21T11:14:37;97107.00;;;16.28;38.03
57442;BME280;43284;47.042;15.498;2023-03-21T11:17:27;97103.75;;;16.25;37.23
57442;BME280;43284;47.042;15.498;2023-03-21T11:22:24;97089.56;;;16.39;37.16
57442;BME280;43284;47.042;15.498;2023-03-21T11:24:55;97084.66;;;16.45;36.85
57442;BME280;43284;47.042;15.498;2023-03-21T11:27:22;97077.31;;;16.38;35.53
57442;BME280;43284;47.042;15.498;2023-03-21T11:29:50;97083.66;;;16.35;36.78
57442;BME280;43284;47.042;15.498;2023-03-21T11:32:29;97084.94;;;16.05;36.07
57442;BME280;43284;47.042;15.498;2023-03-21T11:40:07;97072.75;;;16.16;38.01
57442;BME280;43284;47.042;15.498;2023-03-21T11:42:43;97071.91;;;16.39;36.50
57442;BME280;43284;47.042;15.498;2023-03-21T11:48:13;97059.03;;;16.59;36.62
57442;BME280;43284;47.042;15.498;2023-03-21T11:50:41;97049.88;;;17.22;37.25
57442;BME280;43284;47.042;15.498;2023-03-21T12:02:02;97033.75;;;17.70;35.10
57442;BME280;43284;47.042;15.498;2023-03-21T12:04:45;97034.75;;;17.36;35.22
57442;BME280;43284;47.042;15.498;2023-03-21T12:10:30;97033.53;;;17.17;36.68
57442;BME280;43284;47.042;15.498;2023-03-21T12:22:04;97019.97;;;17.33;37.37
57442;BME280;43284;47.042;15.498;2023-03-21T12:43:27;97006.19;;;17.29;35.06
57442;BME280;43284;47.042;15.498;2023-03-21T12:46:03;96991.63;;;17.35;35.80
57442;BME280;43284;47.042;15.498;2023-03-21T12:51:35;96992.09;;;16.95;35.69
57442;BME280;43284;47.042;15.498;2023-03-21T12:54:14;96992.09;;;16.84;34.95
57442;BME280;43284;47.042;15.498;2023-03-21T12:57:07;96979.00;;;16.82;34.69
57442;BME280;43284;47.042;15.498;2023-03-21T12:59:58;96971.44;;;17.00;35.95
57442;BME280;43284;47.042;15.498;2023-03-21T13:02:31;96974.81;;;17.02;36.10
57442;BME280;43284;47.042;15.498;2023-03-21T13:07:33;96960.06;;;17.88;34.43
57442;BME280;43284;47.042;15.498;2023-03-21T13:10:03;96947.78;;;18.31;35.22
57442;BME280;43284;47.042;15.498;2023-03-21T13:15:29;96942.38;;;18.32;34.34
57442;BME280;43284;47.042;15.498;2023-03-21T13:20:43;96940.53;;;18.12;34.13
57442;BME280;43284;47.042;15.498;2023-03-21T13:23:10;96937.22;;;17.99;33.20
57442;BME280;43284;47.042;15.498;2023-03-21T13:25:42;96935.53;;;17.54;34.54
57442;BME280;43284;47.042;15.498;2023-03-21T13:28:26;96926.38;;;17.58;34.08
57442;BME280;43284;47.042;15.498;2023-03-21T13:30:53;96935.50;;;17.65;34.93
57442;BME280;43284;47.042;15.498;2023-03-21T13:33:39;96929.38;;;17.65;34.97
57442;BME280;43284;47.042;15.498;2023-03-21T13:36:12;96924.56;;;17.59;35.65
57442;BME280;43284;47.042;15.498;2023-03-21T13:38:39;96923.75;;;17.36;34.88
57442;BME280;43284;47.042;15.498;2023-03-21T13:41:36;96920.25;;;17.46;35.78
57442;BME280;43284;47.042;15.498;2023-03-21T13:48:58;96921.78;;;17.83;34.47
57442;BME280;43284;47.042;15.498;2023-03-21T13:54:00;96905.44;;;18.52;35.45
57442;BME280;43284;47.042;15.498;2023-03-21T13:56:26;96905.75;;;18.59;34.70
57442;BME280;43284;47.042;15.498;2023-03-21T13:58:56;96900.78;;;18.65;33.19
57442;BME280;43284;47.042;15.498;2023-03-21T14:01:34;96904.22;;;18.35;33.82
57442;BME280;43284;47.042;15.498;2023-03-21T14:04:20;96894.06;;;18.40;34.23
57442;BME280;43284;47.042;15.498;2023-03-21T14:09:35;96891.81;;;18.15;34.32
57442;BME280;43284;47.042;15.498;2023-03-21T14:12:03;96896.06;;;17.74;34.24
57442;BME280;43284;47.042;15.498;2023-03-21T14:14:36;96893.16;;;17.77;33.91
57442;BME280;43284;47.042;15.498;2023-03-21T14:17:14;96892.13;;;17.57;33.34
57442;BME280;43284;47.042;15.498;2023-03-21T14:19:51;96899.31;;;17.66;33.86
57442;BME280;43284;47.042;15.498;2023-03-21T14:22:18;96900.78;;;17.59;33.88
57442;BME280;43284;47.042;15.498;2023-03-21T14:24:58;96891.31;;;17.56;34.07
57442;BME280;43284;47.042;15.498;2023-03-21T14:27:28;96884.84;;;17.81;34.34
57442;BME280;43284;47.042;15.498;2023-03-21T14:29:55;96879.34;;;17.84;34.75
57442;BME280;43284;47.042;15.498;2023-03-21T14:32:25;96879.41;;;17.94;33.67
57442;BME280;43284;47.042;15.498;2023-03-21T14:34:53;96872.97;;;18.08;34.07
57442;BME280;43284;47.042;15.498;2023-03-21T14:37:30;96869.63;;;18.27;35.10
57442;BME280;43284;47.042;15.498;2023-03-21T14:39:58;96869.31;;;18.41;34.72
57442;BME280;43284;47.042;15.498;2023-03-21T14:42:24;96871.03;;;18.31;33.17
57442;BME280;43284;47.042;15.498;2023-03-21T14:44:50;96871.31;;;18.28;35.44
57442;BME280;43284;47.042;15.498;2023-03-21T14:47:24;96866.25;;;18.25;35.16
57442;BME280;43284;47.042;15.498;2023-03-21T14:49:51;96867.44;;;18.11;34.78
57442;BME280;43284;47.042;15.498;2023-03-21T14:52:44;96868.38;;;17.89;34.44
57442;BME280;43284;47.042;15.498;2023-03-21T14:55:15;96868.13;;;17.92;34.57
57442;BME280;43284;47.042;15.498;2023-03-21T14:57:41;96864.06;;;17.77;34.13